createdAt,value
2022-09-15T00:01:10.062Z,96051.59
2022-09-15T00:03:38.084Z,96049.28
2022-09-15T00:06:06.364Z,96052.41
2022-09-15T00:08:35.996Z,96036.84
2022-09-15T00:11:07.311Z,96038.47
2022-09-15T00:13:36.145Z,96040.03
2022-09-15T00:16:04.954Z,96043.91
2022-09-15T00:18:33.921Z,96034.13
2022-09-15T00:21:06.698Z,96035.00
2022-09-15T00:23:36.504Z,96043.91
2022-09-15T00:26:10.374Z,96032.81
2022-09-15T00:28:38.578Z,96033.97
2022-09-15T00:31:08.284Z,96029.75
2022-09-15T00:33:36.433Z,96021.91
2022-09-15T00:36:06.706Z,96022.69
2022-09-15T00:38:37.157Z,96029.53
2022-09-15T00:41:06.719Z,96024.09
2022-09-15T00:43:46.943Z,96017.16
2022-09-15T00:46:16.261Z,96015.47
2022-09-15T00:48:47.255Z,96012.56
2022-09-15T00:51:18.199Z,96012.66
2022-09-15T00:53:48.542Z,96004.91
2022-09-15T00:56:17.522Z,96001.09
2022-09-15T00:58:49.678Z,96002.56
2022-09-15T01:01:17.791Z,96011.09
2022-09-15T01:03:45.820Z,96006.31
2022-09-15T01:06:16.978Z,96009.91
2022-09-15T01:08:50.172Z,96005.31
2022-09-15T01:11:18.230Z,96000.94
2022-09-15T01:13:46.347Z,95999.63
2022-09-15T01:16:18.720Z,96001.69
2022-09-15T01:18:52.747Z,95999.31
2022-09-15T01:21:32.078Z,96000.78
2022-09-15T01:24:42.030Z,96008.59
2022-09-15T01:27:40.883Z,96001.63
2022-09-15T01:30:13.580Z,95997.66
2022-09-15T01:33:05.219Z,95998.47
2022-09-15T01:35:39.218Z,95997.28
2022-09-15T01:38:10.350Z,95997.78
2022-09-15T01:40:42.136Z,95997.00
2022-09-15T01:43:10.832Z,95995.44
2022-09-15T01:45:43.441Z,95989.06
2022-09-15T01:48:12.105Z,95989.88
2022-09-15T01:50:44.044Z,95995.81
2022-09-15T01:53:14.353Z,95990.38
2022-09-15T01:55:45.358Z,95990.81
2022-09-15T01:58:13.380Z,95977.28
2022-09-15T02:00:46.332Z,95975.38
2022-09-15T02:03:21.288Z,95983.47
2022-09-15T02:05:52.304Z,95990.88
2022-09-15T02:08:28.542Z,95981.47
2022-09-15T02:11:04.296Z,95985.31
2022-09-15T02:13:40.780Z,95978.75
2022-09-15T02:16:19.830Z,95982.22
2022-09-15T02:18:56.557Z,95977.97
2022-09-15T02:21:30.169Z,95978.34
2022-09-15T02:24:03.479Z,95971.78
2022-09-15T02:26:33.818Z,95969.88
2022-09-15T02:29:06.499Z,95979.94
2022-09-15T02:31:36.626Z,95980.63
2022-09-15T02:34:09.161Z,95989.63
2022-09-15T02:36:37.237Z,95976.66
2022-09-15T02:39:09.542Z,95979.72
2022-09-15T02:41:38.125Z,95978.25
2022-09-15T02:44:06.110Z,95972.63
2022-09-15T02:46:35.474Z,95971.75
2022-09-15T02:49:03.543Z,95978.19
2022-09-15T02:51:31.996Z,95983.63
2022-09-15T02:54:00.025Z,95976.94
2022-09-15T02:56:28.093Z,95975.72
2022-09-15T02:58:56.103Z,95974.22
2022-09-15T03:01:30.115Z,95974.16
2022-09-15T03:04:00.172Z,95976.50
2022-09-15T03:06:30.817Z,95980.47
2022-09-15T03:09:00.315Z,95985.09
2022-09-15T03:11:29.491Z,95979.97
2022-09-15T03:13:58.669Z,95976.81
2022-09-15T03:16:27.179Z,95978.50
2022-09-15T03:18:55.792Z,95981.28
2022-09-15T03:21:25.250Z,95980.97
2022-09-15T03:23:53.373Z,95982.88
2022-09-15T03:26:21.374Z,95982.16
2022-09-15T03:28:50.096Z,95989.06
2022-09-15T03:31:19.942Z,95993.31
2022-09-15T03:33:48.101Z,95988.97
2022-09-15T03:36:16.037Z,95984.44
2022-09-15T03:38:45.414Z,95984.53
2022-09-15T03:41:13.600Z,95993.81
2022-09-15T03:43:42.080Z,95983.69
2022-09-15T03:46:12.060Z,95984.44
2022-09-15T03:48:40.970Z,95982.53
2022-09-15T03:51:10.546Z,95985.91
2022-09-15T03:53:39.557Z,95978.53
2022-09-15T03:56:16.065Z,95989.91
2022-09-15T03:58:44.126Z,95984.44
2022-09-15T04:01:13.684Z,95989.13
2022-09-15T04:03:46.366Z,95988.72
2022-09-15T04:06:17.761Z,95986.84
2022-09-15T04:08:45.899Z,95982.88
2022-09-15T04:11:15.843Z,95979.78
2022-09-15T04:13:44.202Z,95978.25
2022-09-15T04:16:14.024Z,95987.63
2022-09-15T04:18:42.157Z,95970.53
2022-09-15T04:21:13.303Z,95981.41
2022-09-15T04:23:41.735Z,95974.38
2022-09-15T04:26:12.278Z,95977.44
2022-09-15T04:28:41.600Z,95971.56
2022-09-15T04:31:11.102Z,95979.03
2022-09-15T04:33:40.637Z,95972.31
2022-09-15T04:36:10.448Z,95976.66
2022-09-15T04:38:38.811Z,95975.03
2022-09-15T04:41:07.383Z,95965.75
2022-09-15T04:43:35.376Z,95971.91
2022-09-15T04:46:05.125Z,95970.25
2022-09-15T04:48:33.563Z,95967.25
2022-09-15T04:51:06.344Z,95962.56
2022-09-15T04:53:35.718Z,95967.19
2022-09-15T04:56:04.931Z,95964.16
2022-09-15T04:58:36.920Z,95959.09
2022-09-15T05:01:10.540Z,95953.19
2022-09-15T05:03:39.151Z,95957.25
2022-09-15T05:06:09.050Z,95957.97
2022-09-15T05:08:37.146Z,95950.91
2022-09-15T05:11:07.630Z,95955.91
2022-09-15T05:13:36.260Z,95943.19
2022-09-15T05:16:05.627Z,95955.59
2022-09-15T05:18:35.154Z,95952.47
2022-09-15T05:21:03.941Z,95948.22
2022-09-15T05:23:31.994Z,95952.38
2022-09-15T05:26:01.363Z,95956.34
2022-09-15T05:28:30.014Z,95954.75
2022-09-15T05:30:58.098Z,95965.06
2022-09-15T05:33:26.124Z,95959.22
2022-09-15T05:35:58.754Z,95964.19
2022-09-15T05:38:29.430Z,95969.63
2022-09-15T05:41:03.371Z,95972.06
2022-09-15T05:43:32.330Z,95971.66
2022-09-15T05:46:00.384Z,95969.81
2022-09-15T05:48:28.785Z,95970.03
2022-09-15T05:50:58.299Z,95971.66
2022-09-15T05:53:26.820Z,95975.97
2022-09-15T05:55:58.264Z,95968.94
2022-09-15T05:58:26.539Z,95969.69
2022-09-15T06:00:55.048Z,95973.47
2022-09-15T06:03:30.074Z,95969.59
2022-09-15T06:06:04.142Z,95968.84
2022-09-15T06:08:32.957Z,95971.28
2022-09-15T06:11:09.195Z,95966.19
2022-09-15T06:13:37.155Z,95966.19
2022-09-15T06:16:07.096Z,95967.03
2022-09-15T06:18:37.251Z,95970.53
2022-09-15T06:21:09.028Z,95973.66
2022-09-15T06:23:38.023Z,95976.78
2022-09-15T06:26:11.234Z,95972.19
2022-09-15T06:28:39.766Z,95985.25
2022-09-15T06:31:12.104Z,95991.56
2022-09-15T06:33:43.305Z,95989.56
2022-09-15T06:36:13.393Z,95989.97
2022-09-15T06:38:41.927Z,95993.19
2022-09-15T06:41:10.245Z,95991.63
2022-09-15T06:43:38.422Z,95990.88
2022-09-15T06:46:09.174Z,95996.31
2022-09-15T06:48:37.695Z,96011.13
2022-09-15T06:51:07.166Z,96009.56
2022-09-15T06:53:38.140Z,96014.25
2022-09-15T06:56:07.948Z,96010.84
2022-09-15T06:58:36.828Z,96012.13
2022-09-15T07:01:05.988Z,96016.88
2022-09-15T07:03:34.061Z,96009.50
2022-09-15T07:06:02.475Z,96008.34
2022-09-15T07:08:30.759Z,96014.16
2022-09-15T07:11:00.150Z,96013.00
2022-09-15T07:13:28.151Z,96023.06
2022-09-15T07:15:57.763Z,96020.75
2022-09-15T07:18:26.687Z,96021.59
2022-09-15T07:20:59.832Z,96027.81
2022-09-15T07:23:28.368Z,96018.81
2022-09-15T07:26:07.651Z,96025.91
2022-09-15T07:28:36.063Z,96025.47
2022-09-15T07:31:04.790Z,96024.78
2022-09-15T07:33:33.578Z,96022.00
2022-09-15T07:36:01.996Z,96031.72
2022-09-15T07:38:30.258Z,96027.41
2022-09-15T07:41:04.215Z,96037.91
2022-09-15T07:43:34.078Z,96029.56
2022-09-15T07:46:02.721Z,96024.91
2022-09-15T07:48:30.966Z,96022.97
2022-09-15T07:50:59.945Z,96024.94
2022-09-15T07:53:29.170Z,96024.19
2022-09-15T07:55:57.583Z,96032.06
2022-09-15T07:58:25.910Z,96029.78
2022-09-15T08:00:55.305Z,96032.16
2022-09-15T08:03:23.334Z,96031.53
2022-09-15T08:05:51.347Z,96033.16
2022-09-15T08:08:19.426Z,96028.94
2022-09-15T08:10:47.452Z,96023.94
2022-09-15T08:13:15.430Z,96024.44
2022-09-15T08:15:45.091Z,96021.72
2022-09-15T08:18:14.765Z,96024.81
2022-09-15T08:20:43.493Z,96012.41
2022-09-15T08:23:12.453Z,96019.34
2022-09-15T08:25:40.585Z,96021.38
2022-09-15T08:28:08.575Z,96012.53
2022-09-15T08:30:36.619Z,96011.06
2022-09-15T08:33:04.656Z,96015.81
2022-09-15T08:35:34.415Z,96017.81
2022-09-15T08:38:02.379Z,96012.81
2022-09-15T08:40:33.979Z,96023.75
2022-09-15T08:43:06.075Z,96019.09
2022-09-15T08:45:44.112Z,96028.50
2022-09-15T08:48:15.727Z,96020.31
2022-09-15T08:50:46.865Z,96016.50
2022-09-15T08:53:17.538Z,96024.66
2022-09-15T08:55:49.176Z,96021.09
2022-09-15T08:58:19.521Z,96015.28
2022-09-15T09:00:51.733Z,96028.56
2022-09-15T09:03:44.612Z,96023.13
2022-09-15T09:06:22.353Z,96023.91
2022-09-15T09:09:05.819Z,96019.69
2022-09-15T09:11:43.211Z,96021.75
2022-09-15T09:14:20.405Z,96030.41
2022-09-15T09:17:13.616Z,96027.28
2022-09-15T09:19:58.959Z,96024.97
2022-09-15T09:22:31.706Z,96021.09
2022-09-15T09:25:08.554Z,96017.19
2022-09-15T09:27:44.236Z,96021.91
2022-09-15T09:30:17.399Z,96021.94
2022-09-15T09:32:47.849Z,96026.66
2022-09-15T09:35:20.311Z,96007.94
2022-09-15T09:37:50.828Z,96018.13
2022-09-15T09:40:19.467Z,96005.28
2022-09-15T09:42:47.711Z,96008.03
2022-09-15T09:45:17.057Z,96009.59
2022-09-15T09:47:46.306Z,96010.38
2022-09-15T09:50:35.805Z,95997.13
2022-09-15T09:53:20.063Z,96003.34
2022-09-15T09:55:48.120Z,96000.63
2022-09-15T09:58:20.980Z,95997.50
2022-09-15T10:00:49.356Z,95997.91
2022-09-15T10:03:19.305Z,95993.25
2022-09-15T10:06:02.068Z,95998.72
2022-09-15T10:08:31.484Z,95997.53
2022-09-15T10:11:04.596Z,95993.66
2022-09-15T10:13:32.643Z,95985.47
2022-09-15T10:16:02.321Z,95976.84
2022-09-15T10:18:34.042Z,95974.53
2022-09-15T10:21:03.084Z,95976.84
2022-09-15T10:23:34.171Z,95975.28
2022-09-15T10:26:21.304Z,95988.56
2022-09-15T10:29:14.275Z,95972.94
2022-09-15T10:31:44.029Z,95968.28
2022-09-15T10:34:28.700Z,95974.53
2022-09-15T10:37:05.483Z,95969.06
2022-09-15T10:39:41.148Z,95974.53
2022-09-15T10:42:14.322Z,95980.78
2022-09-15T10:44:47.129Z,95982.34
2022-09-15T10:47:21.207Z,95984.66
2022-09-15T10:49:58.606Z,95983.09
2022-09-15T10:52:33.059Z,95984.66
2022-09-15T10:55:15.295Z,95985.44
2022-09-15T10:57:53.725Z,95978.81
2022-09-15T11:00:24.064Z,95968.31
2022-09-15T11:03:15.885Z,95965.94
2022-09-15T11:05:52.028Z,95972.19
2022-09-15T11:08:47.457Z,95971.03
2022-09-15T11:11:20.598Z,95972.59
2022-09-15T11:13:59.290Z,95968.28
2022-09-15T11:16:35.912Z,95972.19
2022-09-15T11:19:16.657Z,95977.66
2022-09-15T11:21:48.094Z,95973.75
2022-09-15T11:24:30.501Z,95978.44
2022-09-15T11:27:04.787Z,95966.72
2022-09-15T11:29:37.487Z,95970.63
2022-09-15T11:32:10.087Z,95968.28
2022-09-15T11:34:43.770Z,95974.53
2022-09-15T11:37:15.233Z,95979.22
2022-09-15T11:39:48.473Z,95994.78
2022-09-15T11:42:20.287Z,96004.91
2022-09-15T11:44:49.122Z,96013.47
2022-09-15T11:47:23.810Z,96036.00
2022-09-15T11:49:56.225Z,96033.97
2022-09-15T11:52:46.839Z,96035.97
2022-09-15T11:55:20.660Z,96042.53
2022-09-15T11:57:54.699Z,96062.81
2022-09-15T12:00:22.781Z,96061.47
2022-09-15T12:02:54.683Z,96062.84
2022-09-15T12:05:25.395Z,96057.09
2022-09-15T12:07:56.554Z,96056.66
2022-09-15T12:10:30.183Z,96064.00
2022-09-15T12:13:01.185Z,96053.94
2022-09-15T12:15:29.475Z,96052.84
2022-09-15T12:18:27.672Z,96050.50
2022-09-15T12:21:03.457Z,96055.59
2022-09-15T12:23:34.725Z,96055.16
2022-09-15T12:26:09.140Z,96052.91
2022-09-15T12:28:43.479Z,96054.38
2022-09-15T12:31:26.339Z,96048.63
2022-09-15T12:33:55.572Z,96047.50
2022-09-15T12:36:37.990Z,96048.31
2022-09-15T12:39:18.368Z,96046.81
2022-09-15T12:41:48.663Z,96037.88
2022-09-15T12:44:24.973Z,96031.16
2022-09-15T12:46:54.219Z,96035.88
2022-09-15T12:49:26.654Z,96028.91
2022-09-15T12:51:54.618Z,96022.28
2022-09-15T12:54:24.801Z,96025.03
2022-09-15T12:56:53.474Z,96021.53
2022-09-15T12:59:25.317Z,96022.75
2022-09-15T13:01:54.367Z,96011.47
2022-09-15T13:04:48.825Z,96008.75
2022-09-15T13:07:38.631Z,96005.66
2022-09-15T13:10:39.414Z,96007.16
2022-09-15T13:13:21.561Z,96007.16
2022-09-15T13:15:53.102Z,95998.97
2022-09-15T13:18:22.330Z,96002.47
2022-09-15T13:20:54.793Z,96007.91
2022-09-15T13:23:26.067Z,96003.19
2022-09-15T13:25:57.690Z,96008.22
2022-09-15T13:28:26.315Z,96001.59
2022-09-15T13:31:11.212Z,96004.72
2022-09-15T13:40:27.348Z,95989.69
2022-09-15T13:43:08.627Z,95992.78
2022-09-15T13:45:43.358Z,95986.88
2022-09-15T13:48:33.438Z,95982.25
2022-09-15T13:51:02.688Z,95975.38
2022-09-15T13:53:42.642Z,95976.09
2022-09-15T13:56:13.106Z,95976.53
2022-09-15T13:59:05.167Z,95980.41
2022-09-15T14:01:35.117Z,95972.91
2022-09-15T14:04:07.751Z,95982.72
2022-09-15T14:06:38.100Z,95976.47
2022-09-15T14:09:09.736Z,95973.34
2022-09-15T14:11:39.238Z,95974.97
2022-09-15T14:14:11.812Z,95969.13
2022-09-15T14:16:40.965Z,95969.19
2022-09-15T14:19:33.865Z,95964.81
2022-09-15T14:22:02.533Z,95970.19
2022-09-15T14:24:32.249Z,95987.75
2022-09-15T14:27:03.445Z,96030.91
2022-09-15T14:29:31.524Z,96022.41
2022-09-15T14:32:03.969Z,96022.53
2022-09-15T14:34:36.984Z,96043.38
2022-09-15T14:37:06.679Z,96052.84
2022-09-15T14:39:37.670Z,96047.75
2022-09-15T14:42:21.702Z,96046.84
2022-09-15T14:47:41.829Z,96051.69
2022-09-15T14:50:15.138Z,96054.38
2022-09-15T14:52:44.842Z,96064.81
2022-09-15T14:55:16.308Z,96068.72
2022-09-15T14:57:48.882Z,96069.22
2022-09-15T15:00:20.571Z,96079.25
2022-09-15T15:02:55.676Z,96076.63
2022-09-15T15:05:28.379Z,96074.75
2022-09-15T15:07:56.790Z,96074.44
2022-09-15T15:10:26.594Z,96076.28
2022-09-15T15:12:57.823Z,96081.56
2022-09-15T15:15:26.214Z,96080.00
2022-09-15T15:17:55.411Z,96091.97
2022-09-15T15:20:27.066Z,96079.13
2022-09-15T15:23:16.517Z,96073.09
2022-09-15T15:25:44.801Z,96081.38
2022-09-15T15:28:31.424Z,96086.69
2022-09-15T15:31:13.910Z,96097.94
2022-09-15T15:33:55.891Z,96084.97
2022-09-15T15:36:26.188Z,96089.69
2022-09-15T15:38:55.921Z,96095.28
2022-09-15T15:41:26.191Z,96101.63
2022-09-15T15:44:07.763Z,96109.47
2022-09-15T15:46:53.346Z,96105.53
2022-09-15T15:49:22.532Z,96121.16
2022-09-15T15:51:54.157Z,96134.63
2022-09-15T15:54:22.680Z,96135.38
2022-09-15T15:56:50.769Z,96136.22
2022-09-15T15:59:19.310Z,96143.22
2022-09-15T16:01:50.379Z,96123.00
2022-09-15T16:04:18.431Z,96128.50
2022-09-15T16:06:46.944Z,96132.22
2022-09-15T16:09:17.299Z,96132.66
2022-09-15T16:11:45.405Z,96138.81
2022-09-15T16:14:14.486Z,96160.66
2022-09-15T16:16:42.540Z,96157.78
2022-09-15T16:19:11.852Z,96171.44
2022-09-15T16:21:41.419Z,96171.38
2022-09-15T16:24:13.739Z,96178.03
2022-09-15T16:26:43.396Z,96179.09
2022-09-15T16:29:11.553Z,96180.50
2022-09-15T16:31:39.962Z,96183.78
2022-09-15T16:34:10.010Z,96188.38
2022-09-15T16:36:37.988Z,96191.09
2022-09-15T16:39:05.976Z,96186.50
2022-09-15T16:41:38.479Z,96187.03
2022-09-15T16:44:17.611Z,96195.22
2022-09-15T16:46:45.918Z,96188.78
2022-09-15T16:49:13.991Z,96192.44
2022-09-15T16:51:42.020Z,96203.72
2022-09-15T16:54:16.004Z,96199.44
2022-09-15T16:56:44.236Z,96198.72
2022-09-15T16:59:14.116Z,96200.63
2022-09-15T17:01:42.304Z,96208.22
2022-09-15T17:04:13.639Z,96206.81
2022-09-15T17:06:41.751Z,96220.78
2022-09-15T17:09:09.905Z,96227.72
2022-09-15T17:11:38.007Z,96226.03
2022-09-15T17:14:06.222Z,96234.66
2022-09-15T17:16:35.822Z,96233.38
2022-09-15T17:19:03.872Z,96238.06
2022-09-15T17:21:32.624Z,96240.22
2022-09-15T17:24:00.744Z,96247.28
2022-09-15T17:26:31.195Z,96235.66
2022-09-15T17:28:59.646Z,96246.22
2022-09-15T17:31:28.010Z,96253.97
2022-09-15T17:33:57.568Z,96244.06
2022-09-15T17:36:25.852Z,96260.44
2022-09-15T17:38:53.905Z,96259.41
2022-09-15T17:41:22.849Z,96265.63
2022-09-15T17:43:50.862Z,96267.00
2022-09-15T17:46:18.904Z,96268.38
2022-09-15T17:48:46.974Z,96273.84
2022-09-15T17:51:18.180Z,96275.72
2022-09-15T17:53:47.752Z,96277.63
2022-09-15T17:56:15.851Z,96275.78
2022-09-15T17:58:43.864Z,96283.78
2022-09-15T18:01:13.604Z,96287.97
2022-09-15T18:03:43.687Z,96290.22
2022-09-15T18:06:12.359Z,96297.03
2022-09-15T18:08:41.995Z,96299.03
2022-09-15T18:11:12.476Z,96305.19
2022-09-15T18:13:40.487Z,96306.31
2022-09-15T18:16:12.836Z,96315.38
2022-09-15T18:18:41.030Z,96316.50
2022-09-15T18:21:11.794Z,96317.53
2022-09-15T18:23:42.461Z,96328.38
2022-09-15T18:26:10.457Z,96331.34
2022-09-15T18:28:38.484Z,96331.13
2022-09-15T18:31:06.893Z,96338.09
2022-09-15T18:33:34.932Z,96333.09
2022-09-15T18:36:03.254Z,96344.22
2022-09-15T18:38:31.510Z,96355.56
2022-09-15T18:41:01.459Z,96353.88
2022-09-15T18:43:29.591Z,96353.09
2022-09-15T18:45:59.814Z,96363.69
2022-09-15T18:48:28.393Z,96362.19
2022-09-15T18:50:56.421Z,96363.91
2022-09-15T18:53:24.616Z,96360.72
2022-09-15T18:55:52.648Z,96369.09
2022-09-15T18:58:22.721Z,96369.56
2022-09-15T19:00:50.756Z,96369.34
2022-09-15T19:03:18.757Z,96376.09
2022-09-15T19:05:46.791Z,96371.03
2022-09-15T19:08:15.533Z,96369.22
2022-09-15T19:10:44.283Z,96363.03
2022-09-15T19:13:14.155Z,96361.91
2022-09-15T19:15:44.591Z,96358.50
2022-09-15T19:18:12.713Z,96369.56
2022-09-15T19:20:41.162Z,96368.41
2022-09-15T19:23:09.430Z,96374.06
2022-09-15T19:25:37.902Z,96380.41
2022-09-15T19:28:05.866Z,96383.56
2022-09-15T19:30:33.938Z,96386.19
2022-09-15T19:33:04.770Z,96389.91
2022-09-15T19:35:32.800Z,96389.56
2022-09-15T19:38:00.810Z,96392.28
2022-09-15T19:40:28.972Z,96388.81
2022-09-15T19:42:57.086Z,96390.81
2022-09-15T19:45:25.081Z,96401.00
2022-09-15T19:47:53.068Z,96401.00
2022-09-15T19:50:23.329Z,96397.13
2022-09-15T19:52:52.697Z,96404.13
2022-09-15T19:55:21.667Z,96401.31
2022-09-15T19:57:49.696Z,96400.53
2022-09-15T20:00:17.736Z,96404.44
2022-09-15T20:02:48.570Z,96397.13
2022-09-15T20:05:16.666Z,96403.69
2022-09-15T20:07:48.086Z,96404.34
2022-09-15T20:10:16.341Z,96401.09
2022-09-15T20:12:44.635Z,96411.13
2022-09-15T20:15:12.604Z,96402.34
2022-09-15T20:17:42.365Z,96412.25
2022-09-15T20:20:11.778Z,96421.38
2022-09-15T20:22:39.811Z,96430.03
2022-09-15T20:25:09.456Z,96431.38
2022-09-15T20:27:38.232Z,96436.78
2022-09-15T20:30:07.888Z,96444.47
2022-09-15T20:32:35.965Z,96442.88
2022-09-15T20:35:04.407Z,96445.56
2022-09-15T20:37:37.218Z,96449.66
2022-09-15T20:40:07.390Z,96439.50
2022-09-15T20:42:37.131Z,96444.91
2022-09-15T20:45:05.904Z,96450.47
2022-09-15T20:47:34.398Z,96447.63
2022-09-15T20:50:02.484Z,96457.31
2022-09-15T20:52:36.026Z,96459.69
2022-09-15T20:55:06.871Z,96460.91
2022-09-15T20:57:36.431Z,96462.72
2022-09-15T21:00:06.214Z,96465.75
2022-09-15T21:02:34.334Z,96463.19
2022-09-15T21:05:02.404Z,96463.53
2022-09-15T21:07:31.511Z,96471.06
2022-09-15T21:09:59.545Z,96469.47
2022-09-15T21:12:27.611Z,96461.59
2022-09-15T21:14:57.938Z,96463.16
2022-09-15T21:17:25.885Z,96463.38
2022-09-15T21:19:53.879Z,96466.41
2022-09-15T21:22:22.128Z,96466.28
2022-09-15T21:24:50.089Z,96457.50
2022-09-15T21:27:30.634Z,96470.13
2022-09-15T21:29:59.971Z,96481.13
2022-09-15T21:32:28.203Z,96477.19
2022-09-15T21:34:56.271Z,96477.75
2022-09-15T21:37:27.864Z,96474.34
2022-09-15T21:39:55.958Z,96473.91
2022-09-15T21:42:24.097Z,96473.44
2022-09-15T21:44:52.134Z,96471.44
2022-09-15T21:47:21.505Z,96469.84
2022-09-15T21:49:51.758Z,96467.47
2022-09-15T21:52:19.814Z,96468.16
2022-09-15T21:54:47.908Z,96462.59
2022-09-15T21:57:16.135Z,96465.75
2022-09-15T21:59:44.171Z,96470.38
2022-09-15T22:02:12.310Z,96470.38
2022-09-15T22:04:41.759Z,96470.19
2022-09-15T22:07:09.754Z,96471.81
2022-09-15T22:09:39.487Z,96468.66
2022-09-15T22:12:08.523Z,96464.34
2022-09-15T22:14:36.519Z,96462.31
2022-09-15T22:17:04.501Z,96462.97
2022-09-15T22:19:59.563Z,96466.34
2022-09-15T22:22:27.656Z,96458.22
2022-09-15T22:24:55.676Z,96461.41
2022-09-15T22:27:23.721Z,96456.66
2022-09-15T22:29:51.775Z,96453.19
2022-09-15T22:32:19.795Z,96460.34
2022-09-15T22:34:47.836Z,96455.72
2022-09-15T22:37:17.169Z,96450.31
2022-09-15T22:39:58.530Z,96447.19
2022-09-15T22:42:27.521Z,96447.13
2022-09-15T22:44:55.487Z,96451.91
2022-09-15T22:47:23.497Z,96455.41
2022-09-15T22:49:51.477Z,96454.97
2022-09-15T22:52:21.209Z,96452.47
2022-09-15T22:54:49.180Z,96448.84
2022-09-15T22:57:17.152Z,96443.00
2022-09-15T22:59:45.178Z,96444.53
2022-09-15T23:02:13.204Z,96446.13
2022-09-15T23:04:41.207Z,96445.34
2022-09-15T23:07:09.524Z,96444.53
2022-09-15T23:09:38.909Z,96443.91
2022-09-15T23:12:08.907Z,96456.13
2022-09-15T23:14:37.041Z,96442.84
2022-09-15T23:17:05.030Z,96444.94
2022-09-15T23:19:33.052Z,96445.03
2022-09-15T23:22:01.032Z,96443.75
2022-09-15T23:24:29.202Z,96440.75
2022-09-15T23:26:58.514Z,96438.63
2022-09-15T23:29:26.622Z,96436.13
2022-09-15T23:31:54.798Z,96437.44
2022-09-15T23:34:22.927Z,96435.38
2022-09-15T23:36:50.932Z,96428.09
2022-09-15T23:39:18.963Z,96426.66
2022-09-15T23:41:46.961Z,96420.78
2022-09-15T23:44:16.279Z,96427.28
2022-09-15T23:46:44.334Z,96419.19
2022-09-15T23:49:16.689Z,96416.50
2022-09-15T23:51:46.553Z,96420.31
2022-09-15T23:54:14.728Z,96424.31
2022-09-15T23:56:43.383Z,96416.91
2022-09-15T23:59:11.366Z,96416.69
